TIV85 KABI-KAAO
Flight info
| Callsign | TIV85 |
|---|---|
| Flight time | N/A |
| Altitude | 45000 |
| Route | SPS HUSKA |
| Aircraft | C25B/L-SDE2E3FGHRWXY/LB1 |
Departure
| Time | 2026-04-20 01:35 |
|---|---|
| Airport | Abilene Regional Airport (KABI) |
Arrival
| Time | N/A |
|---|---|
| Airport | Colonel James Jabara Airport (KAAO) |
| Time | Latitude | Longitude | Altitude | Speed | Heading |
|---|---|---|---|---|---|
| 2026-04-20 01:18 | 32.41346 | -99.68191 | 1775 ft | 0 kts | 1° |
| 2026-04-20 01:31 | 32.41360 | -99.68211 | 1775 ft | 7 kts | 282° |
| 2026-04-20 01:31 | 32.41328 | -99.68258 | 1775 ft | 9 kts | 205° |
| 2026-04-20 01:31 | 32.41315 | -99.68331 | 1775 ft | 11 kts | 264° |
| 2026-04-20 01:32 | 32.41248 | -99.68356 | 1775 ft | 12 kts | 179° |
| 2026-04-20 01:32 | 32.41160 | -99.68355 | 1774 ft | 14 kts | 180° |
| 2026-04-20 01:32 | 32.41055 | -99.68355 | 1774 ft | 15 kts | 180° |
| 2026-04-20 01:32 | 32.40946 | -99.68354 | 1774 ft | 16 kts | 180° |
| 2026-04-20 01:33 | 32.40855 | -99.68343 | 1774 ft | 11 kts | 136° |
| 2026-04-20 01:33 | 32.40841 | -99.68237 | 1775 ft | 17 kts | 89° |
| 2026-04-20 01:33 | 32.40841 | -99.68087 | 1775 ft | 19 kts | 89° |
| 2026-04-20 01:33 | 32.40842 | -99.67932 | 1775 ft | 20 kts | 90° |
| 2026-04-20 01:34 | 32.40842 | -99.67765 | 1775 ft | 21 kts | 90° |
| 2026-04-20 01:34 | 32.40843 | -99.67596 | 1775 ft | 20 kts | 90° |
| 2026-04-20 01:34 | 32.40831 | -99.67484 | 1777 ft | 11 kts | 149° |
| 2026-04-20 01:34 | 32.40634 | -99.67476 | 1776 ft | 72 kts | 180° |
| 2026-04-20 01:35 | 32.39741 | -99.67470 | 2031 ft | 168 kts | 179° |
| 2026-04-20 01:35 | 32.38376 | -99.67482 | 2718 ft | 216 kts | 178° |
| 2026-04-20 01:35 | 32.36801 | -99.67447 | 3651 ft | 236 kts | 175° |
| 2026-04-20 01:35 | 32.35189 | -99.67130 | 4875 ft | 240 kts | 161° |
| 2026-04-20 01:36 | 32.33882 | -99.66113 | 6418 ft | 226 kts | 130° |
| 2026-04-20 01:36 | 32.33321 | -99.64327 | 7495 ft | 245 kts | 96° |
| 2026-04-20 01:36 | 32.33722 | -99.62343 | 8527 ft | 257 kts | 62° |
| 2026-04-20 01:36 | 32.35000 | -99.60855 | 9591 ft | 263 kts | 31° |
| 2026-04-20 01:37 | 32.36626 | -99.59836 | 10629 ft | 266 kts | 23° |
| 2026-04-20 01:37 | 32.38313 | -99.58925 | 11644 ft | 268 kts | 23° |
| 2026-04-20 01:37 | 32.39985 | -99.57929 | 12668 ft | 270 kts | 25° |
| 2026-04-20 01:37 | 32.41659 | -99.56890 | 13689 ft | 273 kts | 25° |
| 2026-04-20 01:38 | 32.43359 | -99.55845 | 14566 ft | 280 kts | 24° |
| 2026-04-20 01:38 | 32.45176 | -99.54749 | 14893 ft | 306 kts | 24° |
| 2026-04-20 01:38 | 32.47126 | -99.53565 | 15424 ft | 318 kts | 24° |
| 2026-04-20 01:38 | 32.49074 | -99.52366 | 16207 ft | 321 kts | 24° |
| 2026-04-20 01:39 | 32.51075 | -99.51150 | 16951 ft | 326 kts | 24° |
| 2026-04-20 01:39 | 32.53101 | -99.49909 | 17704 ft | 330 kts | 23° |
| 2026-04-20 01:39 | 32.55157 | -99.48662 | 18448 ft | 334 kts | 23° |
| 2026-04-20 01:39 | 32.57236 | -99.47387 | 19101 ft | 338 kts | 23° |
| 2026-04-20 01:40 | 32.59340 | -99.46105 | 19739 ft | 342 kts | 23° |
| 2026-04-20 01:40 | 32.61463 | -99.44802 | 20385 ft | 346 kts | 23° |
| 2026-04-20 01:40 | 32.63613 | -99.43492 | 21027 ft | 349 kts | 22° |
| 2026-04-20 01:40 | 32.65785 | -99.42157 | 21670 ft | 353 kts | 23° |
| 2026-04-20 01:41 | 32.67981 | -99.40818 | 22309 ft | 357 kts | 22° |
| 2026-04-20 01:41 | 32.70198 | -99.39455 | 22937 ft | 361 kts | 22° |
| 2026-04-20 01:41 | 32.72412 | -99.38100 | 23556 ft | 365 kts | 22° |
| 2026-04-20 01:41 | 32.74681 | -99.36707 | 24122 ft | 369 kts | 22° |
| 2026-04-20 01:42 | 32.76973 | -99.35300 | 24619 ft | 373 kts | 22° |
| 2026-04-20 01:42 | 32.79288 | -99.33878 | 25132 ft | 377 kts | 22° |
| 2026-04-20 01:42 | 32.81632 | -99.32440 | 25627 ft | 381 kts | 22° |
| 2026-04-20 01:42 | 32.83998 | -99.30980 | 26132 ft | 385 kts | 22° |
| 2026-04-20 01:43 | 32.86388 | -99.29514 | 26645 ft | 389 kts | 22° |
| 2026-04-20 01:43 | 32.88799 | -99.28026 | 27197 ft | 391 kts | 21° |
| 2026-04-20 01:43 | 32.91174 | -99.26565 | 27844 ft | 390 kts | 21° |
| 2026-04-20 01:43 | 32.93622 | -99.25052 | 28523 ft | 390 kts | 21° |
| 2026-04-20 01:44 | 32.95999 | -99.23590 | 29199 ft | 390 kts | 21° |
| 2026-04-20 01:44 | 32.98410 | -99.22100 | 29921 ft | 390 kts | 20° |
| 2026-04-20 01:44 | 33.00817 | -99.20614 | 30601 ft | 390 kts | 20° |
| 2026-04-20 01:44 | 33.03234 | -99.19119 | 31207 ft | 391 kts | 20° |
| 2026-04-20 01:45 | 33.05657 | -99.17623 | 31839 ft | 393 kts | 20° |
| 2026-04-20 01:45 | 33.08087 | -99.16120 | 32458 ft | 394 kts | 20° |
| 2026-04-20 01:45 | 33.10525 | -99.14609 | 33121 ft | 396 kts | 20° |
| 2026-04-20 01:45 | 33.12972 | -99.13094 | 33786 ft | 397 kts | 19° |
| 2026-04-20 01:46 | 33.15393 | -99.11593 | 34406 ft | 398 kts | 19° |
| 2026-04-20 01:46 | 33.17850 | -99.10069 | 35020 ft | 398 kts | 19° |
| 2026-04-20 01:46 | 33.20301 | -99.08545 | 35662 ft | 396 kts | 18° |
| 2026-04-20 01:46 | 33.22745 | -99.07027 | 36310 ft | 395 kts | 18° |
| 2026-04-20 01:47 | 33.25178 | -99.05516 | 36957 ft | 394 kts | 17° |
| 2026-04-20 01:47 | 33.27604 | -99.04007 | 37605 ft | 392 kts | 16° |
| 2026-04-20 01:47 | 33.30019 | -99.02504 | 38253 ft | 391 kts | 16° |
| 2026-04-20 01:47 | 33.32427 | -99.01004 | 38912 ft | 389 kts | 15° |
| 2026-04-20 01:48 | 33.34790 | -98.99534 | 39424 ft | 388 kts | 15° |
| 2026-04-20 01:48 | 33.37175 | -98.98044 | 39946 ft | 386 kts | 15° |
| 2026-04-20 01:48 | 33.39550 | -98.96564 | 40459 ft | 384 kts | 15° |
| 2026-04-20 01:48 | 33.41910 | -98.95091 | 40986 ft | 382 kts | 15° |
| 2026-04-20 01:49 | 33.44263 | -98.93621 | 41508 ft | 380 kts | 15° |
| 2026-04-20 01:49 | 33.46607 | -98.92156 | 42040 ft | 379 kts | 15° |
| 2026-04-20 01:49 | 33.48939 | -98.90700 | 42568 ft | 377 kts | 15° |
| 2026-04-20 01:49 | 33.51259 | -98.89245 | 43095 ft | 376 kts | 15° |
| 2026-04-20 01:50 | 33.53576 | -98.87797 | 43621 ft | 375 kts | 16° |
| 2026-04-20 01:50 | 33.55880 | -98.86353 | 44150 ft | 373 kts | 15° |
| 2026-04-20 01:50 | 33.58145 | -98.84932 | 44660 ft | 372 kts | 16° |
| 2026-04-20 01:50 | 33.60433 | -98.83498 | 45146 ft | 371 kts | 16° |
| 2026-04-20 01:51 | 33.62743 | -98.82056 | 45256 ft | 380 kts | 16° |
| 2026-04-20 01:51 | 33.65126 | -98.80585 | 45271 ft | 390 kts | 15° |
| 2026-04-20 01:51 | 33.67576 | -98.79092 | 45280 ft | 403 kts | 21° |
| 2026-04-20 01:51 | 33.69809 | -98.77015 | 45289 ft | 411 kts | 34° |